createdAt,value
2023-01-27T00:01:33.908Z,77.30
2023-01-27T00:04:03.434Z,77.68
2023-01-27T00:06:36.136Z,77.59
2023-01-27T00:09:04.100Z,77.40
2023-01-27T00:11:49.694Z,77.10
2023-01-27T00:14:17.591Z,77.59
2023-01-27T00:16:45.452Z,77.36
2023-01-27T00:19:14.733Z,77.55
2023-01-27T00:22:00.479Z,77.35
2023-01-27T00:24:37.470Z,77.37
2023-01-27T00:27:08.969Z,77.54
2023-01-27T00:29:40.536Z,78.18
2023-01-27T00:32:25.828Z,77.63
2023-01-27T00:34:55.320Z,77.96
2023-01-27T00:37:24.505Z,77.94
2023-01-27T00:39:52.363Z,77.30
2023-01-27T00:42:20.230Z,77.52
2023-01-27T00:45:02.136Z,76.91
2023-01-27T00:47:30.029Z,76.83
2023-01-27T00:49:59.174Z,76.82
2023-01-27T00:52:27.220Z,77.31
2023-01-27T00:54:55.008Z,77.79
2023-01-27T00:57:22.841Z,77.26
2023-01-27T00:59:51.090Z,77.38
2023-01-27T01:02:19.368Z,77.07
2023-01-27T01:04:47.285Z,77.24
2023-01-27T01:07:16.582Z,77.17
2023-01-27T01:09:45.205Z,76.93
2023-01-27T01:12:13.154Z,77.58
2023-01-27T01:14:40.968Z,77.15
2023-01-27T01:17:08.922Z,77.43
2023-01-27T01:19:37.044Z,77.68
2023-01-27T01:22:05.114Z,77.56
2023-01-27T01:24:34.371Z,77.49
2023-01-27T01:27:02.194Z,77.56
2023-01-27T01:29:30.110Z,76.92
2023-01-27T01:31:59.132Z,77.19
2023-01-27T01:34:27.067Z,77.37
2023-01-27T01:36:54.986Z,76.85
2023-01-27T01:39:22.793Z,77.91
2023-01-27T01:41:52.939Z,77.75
2023-01-27T01:44:22.768Z,77.45
2023-01-27T01:46:50.716Z,77.68
2023-01-27T01:49:22.069Z,77.65
2023-01-27T01:51:54.850Z,77.30
2023-01-27T01:54:27.414Z,77.70
2023-01-27T01:57:06.739Z,77.22
2023-01-27T01:59:37.617Z,76.79
2023-01-27T02:02:09.493Z,77.00
2023-01-27T02:04:42.150Z,77.55
2023-01-27T02:07:14.362Z,77.01
2023-01-27T02:09:42.248Z,77.10
2023-01-27T02:12:11.593Z,76.96
2023-01-27T02:14:40.519Z,77.38
2023-01-27T02:17:10.446Z,77.08
2023-01-27T02:19:52.057Z,77.24
2023-01-27T02:22:28.559Z,77.06
2023-01-27T02:25:04.932Z,77.73
2023-01-27T02:27:34.582Z,77.12
2023-01-27T02:30:02.465Z,77.24
2023-01-27T02:32:30.358Z,77.50
2023-01-27T02:34:58.642Z,77.67
2023-01-27T02:37:26.960Z,77.81
2023-01-27T02:39:56.497Z,77.32
2023-01-27T02:42:24.315Z,77.63
2023-01-27T02:44:53.475Z,77.92
2023-01-27T02:47:21.923Z,77.46
2023-01-27T02:49:50.185Z,77.62
2023-01-27T02:52:18.472Z,77.68
2023-01-27T02:54:47.276Z,77.06
2023-01-27T02:57:15.446Z,77.55
2023-01-27T02:59:57.220Z,77.61
2023-01-27T03:02:30.490Z,77.55
2023-01-27T03:04:58.765Z,77.77
2023-01-27T03:07:26.969Z,77.76
2023-01-27T03:09:56.452Z,77.89
2023-01-27T03:12:24.808Z,77.52
2023-01-27T03:15:11.584Z,77.46
2023-01-27T03:17:58.936Z,77.71
2023-01-27T03:20:26.776Z,77.83
2023-01-27T03:22:54.743Z,77.84
2023-01-27T03:25:24.873Z,78.21
2023-01-27T03:27:57.288Z,77.66
2023-01-27T03:30:34.409Z,77.65
2023-01-27T03:33:32.780Z,77.30
2023-01-27T03:36:41.184Z,77.86
2023-01-27T03:39:26.686Z,77.14
2023-01-27T03:42:12.135Z,77.44
2023-01-27T03:44:58.274Z,77.41
2023-01-27T03:47:27.136Z,77.36
2023-01-27T03:49:56.276Z,77.99
2023-01-27T03:52:24.493Z,78.08
2023-01-27T03:54:52.282Z,77.46
2023-01-27T03:57:20.139Z,77.36
2023-01-27T03:59:48.057Z,77.82
2023-01-27T04:02:33.935Z,77.34
2023-01-27T04:05:20.559Z,77.29
2023-01-27T04:07:48.438Z,77.06
2023-01-27T04:10:17.030Z,77.41
2023-01-27T04:12:44.882Z,77.40
2023-01-27T04:15:13.109Z,78.14
2023-01-27T04:17:42.681Z,77.95
2023-01-27T04:20:13.319Z,77.82
2023-01-27T04:22:41.332Z,77.40
2023-01-27T04:25:11.609Z,77.74
2023-01-27T04:27:40.131Z,78.34
2023-01-27T04:30:09.527Z,77.62
2023-01-27T04:32:37.366Z,77.61
2023-01-27T04:35:05.897Z,77.33
2023-01-27T04:37:35.035Z,77.88
2023-01-27T04:40:02.823Z,77.49
2023-01-27T04:42:30.676Z,77.44
2023-01-27T04:44:58.570Z,77.71
2023-01-27T04:47:26.501Z,77.63
2023-01-27T04:49:54.427Z,77.42
2023-01-27T04:52:22.316Z,77.63
2023-01-27T04:54:51.584Z,77.55
2023-01-27T04:57:20.208Z,77.58
2023-01-27T04:59:47.992Z,77.21
2023-01-27T05:02:16.037Z,77.99
2023-01-27T05:04:43.984Z,77.54
2023-01-27T05:07:11.809Z,77.17
2023-01-27T05:09:39.587Z,77.12
2023-01-27T05:12:09.024Z,76.84
2023-01-27T05:14:36.918Z,77.17
2023-01-27T05:17:04.803Z,78.01
2023-01-27T05:19:32.861Z,77.34
2023-01-27T05:22:00.813Z,77.55
2023-01-27T05:24:28.752Z,77.22
2023-01-27T05:26:57.618Z,77.53
2023-01-27T05:29:27.007Z,77.39
2023-01-27T05:31:54.923Z,77.61
2023-01-27T05:34:22.952Z,77.62
2023-01-27T05:36:51.562Z,77.42
2023-01-27T05:39:19.720Z,77.55
2023-01-27T05:41:47.691Z,77.18
2023-01-27T05:44:15.743Z,76.91
2023-01-27T05:46:44.962Z,76.48
2023-01-27T05:49:12.988Z,76.51
2023-01-27T05:51:41.035Z,76.76
2023-01-27T05:54:09.803Z,76.40
2023-01-27T05:56:37.842Z,75.88
2023-01-27T05:59:05.835Z,76.85
2023-01-27T06:01:35.624Z,76.20
2023-01-27T06:04:05.953Z,76.41
2023-01-27T06:06:34.608Z,76.42
2023-01-27T06:09:02.936Z,76.45
2023-01-27T06:11:30.886Z,76.13
2023-01-27T06:13:58.963Z,76.21
2023-01-27T06:16:26.973Z,76.21
2023-01-27T06:18:54.867Z,76.07
2023-01-27T06:21:24.156Z,75.74
2023-01-27T06:23:53.413Z,75.37
2023-01-27T06:26:21.381Z,74.86
2023-01-27T06:28:49.396Z,74.86
2023-01-27T06:31:19.298Z,74.87
2023-01-27T06:33:47.367Z,74.88
2023-01-27T06:36:16.711Z,74.34
2023-01-27T06:38:46.479Z,74.52
2023-01-27T06:41:14.599Z,74.20
2023-01-27T06:43:42.565Z,74.12
2023-01-27T06:46:10.512Z,73.67
2023-01-27T06:48:38.892Z,73.50
2023-01-27T06:51:07.629Z,73.32
2023-01-27T06:53:37.334Z,73.77
2023-01-27T06:56:07.773Z,73.44
2023-01-27T06:58:35.720Z,73.44
2023-01-27T07:01:05.512Z,72.53
2023-01-27T07:06:01.102Z,70.77
2023-01-27T07:08:29.023Z,69.74
2023-01-27T07:10:56.870Z,69.62
2023-01-27T07:13:26.112Z,69.12
2023-01-27T07:15:57.226Z,69.37
2023-01-27T07:18:25.211Z,69.01
2023-01-27T07:20:53.109Z,68.85
2023-01-27T07:23:21.012Z,68.70
2023-01-27T07:25:49.083Z,68.97
2023-01-27T07:28:17.180Z,68.62
2023-01-27T07:30:46.488Z,68.80
2023-01-27T07:33:15.722Z,67.97
2023-01-27T07:35:43.725Z,68.23
2023-01-27T07:38:12.045Z,68.09
2023-01-27T07:40:39.965Z,67.51
2023-01-27T07:43:08.276Z,67.72
2023-01-27T07:45:36.467Z,67.18
2023-01-27T07:48:07.711Z,66.55
2023-01-27T07:50:36.607Z,67.08
2023-01-27T07:53:06.050Z,66.98
2023-01-27T07:55:34.301Z,67.50
2023-01-27T07:58:02.577Z,67.13
2023-01-27T08:00:30.824Z,67.06
2023-01-27T08:03:01.856Z,67.03
2023-01-27T08:05:33.706Z,66.56
2023-01-27T08:08:03.954Z,66.47
2023-01-27T08:10:31.883Z,66.57
2023-01-27T08:12:59.882Z,66.55
2023-01-27T08:15:27.856Z,66.92
2023-01-27T08:17:57.029Z,66.53
2023-01-27T08:20:26.173Z,65.74
2023-01-27T08:22:55.546Z,66.40
2023-01-27T08:25:23.514Z,66.50
2023-01-27T08:27:52.546Z,66.26
2023-01-27T08:30:21.306Z,66.23
2023-01-27T08:32:49.291Z,66.04
2023-01-27T08:35:17.592Z,65.89
2023-01-27T08:37:48.390Z,65.58
2023-01-27T08:40:19.838Z,65.31
2023-01-27T08:42:47.688Z,65.29
2023-01-27T08:45:15.513Z,65.37
2023-01-27T08:47:43.486Z,64.85
2023-01-27T08:50:12.975Z,64.49
2023-01-27T08:52:41.258Z,65.44
2023-01-27T08:55:09.360Z,65.67
2023-01-27T08:57:38.657Z,64.81
2023-01-27T09:00:07.723Z,64.92
2023-01-27T09:02:36.115Z,63.78
2023-01-27T09:05:04.210Z,64.37
2023-01-27T09:07:33.232Z,63.85
2023-01-27T09:10:13.612Z,63.73
2023-01-27T09:12:44.773Z,64.05
2023-01-27T09:15:13.854Z,63.10
2023-01-27T09:17:42.116Z,62.92
2023-01-27T09:20:12.019Z,63.00
2023-01-27T09:22:41.217Z,62.81
2023-01-27T09:25:10.375Z,62.75
2023-01-27T09:27:39.932Z,62.78
2023-01-27T09:30:14.585Z,62.29
2023-01-27T09:32:43.893Z,62.99
2023-01-27T09:35:12.226Z,62.29
2023-01-27T09:37:45.115Z,62.23
2023-01-27T09:40:23.635Z,62.39
2023-01-27T09:43:15.135Z,62.50
2023-01-27T09:46:01.762Z,62.37
2023-01-27T09:48:44.907Z,61.75
2023-01-27T09:51:24.342Z,60.94
2023-01-27T09:54:30.830Z,60.46
2023-01-27T09:57:09.567Z,61.07
2023-01-27T09:59:49.655Z,60.64
2023-01-27T10:02:35.269Z,60.22
2023-01-27T10:05:31.037Z,60.37
2023-01-27T10:08:17.287Z,60.67
2023-01-27T10:10:58.406Z,59.54
2023-01-27T10:13:35.733Z,60.14
2023-01-27T10:16:15.152Z,59.72
2023-01-27T10:19:14.747Z,59.97
2023-01-27T10:21:53.612Z,60.08
2023-01-27T10:24:33.632Z,60.22
2023-01-27T10:27:08.825Z,60.24
2023-01-27T10:29:45.469Z,59.54
2023-01-27T10:32:24.607Z,60.28
2023-01-27T10:35:05.077Z,60.25
2023-01-27T10:37:43.632Z,60.29
2023-01-27T10:40:19.546Z,59.93
2023-01-27T10:42:58.150Z,59.17
2023-01-27T10:45:32.132Z,59.72
2023-01-27T10:48:20.829Z,59.69
2023-01-27T10:50:53.886Z,58.84
2023-01-27T10:53:30.007Z,59.43
2023-01-27T10:56:05.177Z,58.80
2023-01-27T10:58:43.816Z,59.22
2023-01-27T11:01:21.317Z,58.88
2023-01-27T11:03:55.639Z,59.52
2023-01-27T11:06:28.944Z,58.89
2023-01-27T11:09:08.720Z,59.90
2023-01-27T11:11:46.480Z,59.73
2023-01-27T11:14:28.745Z,59.37
2023-01-27T11:17:03.810Z,58.46
2023-01-27T11:19:45.359Z,58.58
2023-01-27T11:22:22.920Z,59.28
2023-01-27T11:24:58.667Z,59.95
2023-01-27T11:27:38.746Z,60.03
2023-01-27T11:30:16.847Z,59.77
2023-01-27T11:32:55.413Z,59.41
2023-01-27T11:35:23.791Z,59.78
2023-01-27T11:38:00.600Z,59.64
2023-01-27T11:40:34.348Z,60.31
2023-01-27T11:43:03.383Z,60.31
2023-01-27T11:45:36.201Z,60.16
2023-01-27T11:48:08.799Z,60.26
2023-01-27T11:50:37.607Z,60.36
2023-01-27T11:53:15.580Z,60.53
2023-01-27T11:55:46.864Z,60.55
2023-01-27T11:58:20.606Z,60.33
2023-01-27T12:00:53.948Z,60.52
2023-01-27T12:03:25.684Z,60.06
2023-01-27T12:05:56.719Z,60.02
2023-01-27T12:08:41.112Z,58.92
2023-01-27T12:11:27.366Z,59.49
2023-01-27T12:13:57.640Z,59.98
2023-01-27T12:16:34.354Z,59.19
2023-01-27T12:19:05.471Z,58.97
2023-01-27T12:21:41.497Z,59.14
2023-01-27T12:24:23.193Z,58.93
2023-01-27T12:26:53.371Z,59.47
2023-01-27T12:29:26.823Z,58.65
2023-01-27T12:31:56.827Z,59.10
2023-01-27T12:34:29.375Z,59.16
2023-01-27T12:36:58.904Z,59.20
2023-01-27T12:39:46.731Z,58.80
2023-01-27T12:42:38.063Z,58.41
2023-01-27T12:45:21.851Z,58.73
2023-01-27T12:48:00.899Z,58.83
2023-01-27T12:50:35.383Z,58.80
2023-01-27T12:53:12.748Z,59.63
2023-01-27T12:55:44.960Z,59.25
2023-01-27T12:58:31.392Z,59.08
2023-01-27T13:01:01.647Z,59.24
2023-01-27T13:03:30.569Z,59.53
2023-01-27T13:06:00.515Z,59.96
2023-01-27T13:08:33.543Z,59.33
2023-01-27T13:11:04.900Z,59.33
2023-01-27T13:13:32.929Z,59.50
2023-01-27T13:16:07.595Z,59.89
2023-01-27T13:18:39.611Z,60.17
2023-01-27T13:21:16.093Z,59.64
2023-01-27T13:23:44.493Z,59.02
2023-01-27T13:26:18.596Z,59.84
2023-01-27T13:28:53.499Z,59.42
2023-01-27T13:31:30.876Z,59.70
2023-01-27T13:34:04.957Z,59.30
2023-01-27T13:36:39.280Z,59.36
2023-01-27T13:39:17.338Z,59.04
2023-01-27T13:41:53.323Z,58.71
2023-01-27T13:44:29.468Z,59.48
2023-01-27T13:47:03.051Z,59.43
2023-01-27T13:49:37.037Z,59.83
2023-01-27T13:52:06.719Z,59.20
2023-01-27T13:54:34.833Z,59.84
2023-01-27T13:57:27.110Z,59.76
2023-01-27T14:00:08.555Z,60.37
2023-01-27T14:03:11.482Z,60.19
2023-01-27T14:05:44.970Z,60.82
2023-01-27T14:08:26.719Z,60.50
2023-01-27T14:11:09.278Z,60.54
2023-01-27T14:13:54.980Z,61.26
2023-01-27T14:16:29.180Z,60.91
2023-01-27T14:19:06.741Z,61.47
2023-01-27T14:21:43.972Z,61.00
2023-01-27T14:24:27.342Z,61.65
2023-01-27T14:27:05.122Z,61.75
2023-01-27T14:29:44.249Z,61.25
2023-01-27T14:32:20.305Z,61.58
2023-01-27T14:35:00.178Z,61.65
2023-01-27T14:37:35.188Z,61.42
2023-01-27T14:40:18.367Z,61.85
2023-01-27T14:42:59.357Z,61.81
2023-01-27T14:45:33.907Z,61.75
2023-01-27T14:48:11.082Z,61.59
2023-01-27T14:50:43.124Z,61.27
2023-01-27T14:53:28.302Z,62.11
2023-01-27T14:56:02.603Z,61.80
2023-01-27T14:58:45.502Z,62.07
2023-01-27T15:01:27.775Z,61.53
2023-01-27T15:04:26.619Z,61.30
2023-01-27T15:06:59.323Z,61.30
2023-01-27T15:09:42.975Z,61.03
2023-01-27T15:12:29.671Z,61.74
2023-01-27T15:15:19.345Z,61.75
2023-01-27T15:18:03.244Z,62.50
2023-01-27T15:20:50.063Z,62.33
2023-01-27T15:23:38.328Z,62.07
2023-01-27T15:26:08.732Z,62.19
2023-01-27T15:28:39.628Z,62.24
2023-01-27T15:31:23.827Z,62.21
2023-01-27T15:33:56.153Z,61.92
2023-01-27T15:36:36.347Z,62.33
2023-01-27T15:39:25.960Z,62.45
2023-01-27T15:42:13.182Z,62.85
2023-01-27T15:44:43.279Z,62.74
2023-01-27T15:47:13.729Z,62.95
2023-01-27T15:49:46.754Z,63.42
2023-01-27T15:52:29.605Z,63.39
2023-01-27T15:55:01.334Z,63.74
2023-01-27T15:57:33.567Z,63.95
2023-01-27T16:00:06.353Z,64.35
2023-01-27T16:02:45.183Z,64.30
2023-01-27T16:05:22.872Z,64.21
2023-01-27T16:07:54.495Z,65.08
2023-01-27T16:10:24.620Z,65.72
2023-01-27T16:13:26.949Z,66.24
2023-01-27T16:16:23.559Z,67.04
2023-01-27T16:18:57.788Z,67.59
2023-01-27T16:21:49.510Z,67.56
2023-01-27T16:24:25.601Z,67.49
2023-01-27T16:27:00.806Z,67.99
2023-01-27T16:29:35.349Z,68.15
2023-01-27T16:32:07.621Z,69.22
2023-01-27T16:34:40.955Z,69.22
2023-01-27T16:37:26.884Z,70.12
2023-01-27T16:40:02.988Z,70.14
2023-01-27T16:42:35.116Z,70.85
2023-01-27T16:45:10.241Z,70.97
2023-01-27T16:47:44.419Z,71.29
2023-01-27T16:50:32.251Z,72.30
2023-01-27T16:53:03.231Z,72.18
2023-01-27T16:55:31.345Z,72.56
2023-01-27T16:58:01.589Z,72.94
2023-01-27T17:00:33.317Z,73.09
2023-01-27T17:03:05.641Z,73.33
2023-01-27T17:05:33.746Z,73.56
2023-01-27T17:08:17.893Z,73.77
2023-01-27T17:10:50.800Z,74.05
2023-01-27T17:13:30.244Z,74.63
2023-01-27T17:16:00.085Z,75.24
2023-01-27T17:18:31.639Z,75.44
2023-01-27T17:21:03.456Z,75.61
2023-01-27T17:23:35.822Z,75.92
2023-01-27T17:26:07.738Z,75.59
2023-01-27T17:28:36.503Z,75.66
2023-01-27T17:31:08.006Z,75.76
2023-01-27T17:33:38.417Z,75.98
2023-01-27T17:36:11.203Z,76.35
2023-01-27T17:38:47.631Z,75.97
2023-01-27T17:41:33.647Z,76.25
2023-01-27T17:44:02.259Z,76.05
2023-01-27T17:46:33.077Z,76.04
2023-01-27T17:49:04.614Z,76.25
2023-01-27T17:51:38.320Z,75.66
2023-01-27T17:54:20.384Z,76.15
2023-01-27T17:56:51.287Z,75.93
2023-01-27T17:59:22.089Z,75.89
2023-01-27T18:01:53.119Z,75.50
2023-01-27T18:04:22.041Z,75.40
2023-01-27T18:06:51.492Z,75.33
2023-01-27T18:09:26.345Z,75.75
2023-01-27T18:11:57.173Z,75.29
2023-01-27T18:14:26.112Z,75.11
2023-01-27T18:17:02.070Z,75.10
2023-01-27T18:19:30.281Z,75.29
2023-01-27T18:22:19.211Z,75.19
2023-01-27T18:24:54.022Z,75.07
2023-01-27T18:27:27.655Z,74.97
2023-01-27T18:30:02.714Z,74.34
2023-01-27T18:32:38.903Z,74.71
2023-01-27T18:35:24.863Z,75.15
2023-01-27T18:37:56.051Z,74.42
2023-01-27T18:40:31.455Z,74.32
2023-01-27T18:43:00.364Z,74.25
2023-01-27T18:45:28.809Z,74.71
2023-01-27T18:47:57.592Z,74.29
2023-01-27T18:50:27.410Z,74.74
2023-01-27T18:52:55.316Z,74.60
2023-01-27T18:55:24.865Z,74.60
2023-01-27T18:57:56.456Z,74.92
2023-01-27T19:00:26.713Z,75.05
2023-01-27T19:02:58.965Z,74.84
2023-01-27T19:05:29.578Z,75.67
2023-01-27T19:07:57.587Z,75.03
2023-01-27T19:10:28.388Z,75.10
2023-01-27T19:12:59.200Z,75.13
2023-01-27T19:15:29.241Z,74.76
2023-01-27T19:17:59.586Z,75.01
2023-01-27T19:20:29.016Z,75.01
2023-01-27T19:22:58.518Z,74.71
2023-01-27T19:25:30.490Z,75.05
2023-01-27T19:28:03.992Z,74.97
2023-01-27T19:30:35.861Z,75.03
2023-01-27T19:33:04.700Z,74.45
2023-01-27T19:35:32.750Z,74.58
2023-01-27T19:38:03.579Z,74.33
2023-01-27T19:40:32.557Z,74.40
2023-01-27T19:43:02.041Z,73.90
2023-01-27T19:45:29.956Z,73.73
2023-01-27T19:47:59.736Z,74.07
2023-01-27T19:50:29.914Z,73.57
2023-01-27T19:52:58.018Z,73.06
2023-01-27T19:55:26.445Z,73.03
2023-01-27T19:57:54.229Z,73.13
2023-01-27T20:00:27.828Z,72.71
2023-01-27T20:02:56.261Z,72.56
2023-01-27T20:05:26.076Z,72.81
2023-01-27T20:07:55.483Z,72.80
2023-01-27T20:10:25.968Z,72.60
2023-01-27T20:12:56.084Z,72.18
2023-01-27T20:15:27.103Z,72.73
2023-01-27T20:17:56.068Z,72.12
2023-01-27T20:20:25.498Z,72.35
2023-01-27T20:22:54.087Z,71.81
2023-01-27T20:25:23.639Z,72.12
2023-01-27T20:27:53.167Z,71.59
2023-01-27T20:30:23.148Z,71.23
2023-01-27T20:32:54.421Z,71.44
2023-01-27T20:35:23.765Z,71.47
2023-01-27T20:37:53.643Z,71.39
2023-01-27T20:40:23.572Z,71.11
2023-01-27T20:42:52.448Z,71.14
2023-01-27T20:45:21.056Z,71.64
2023-01-27T20:47:50.422Z,71.65
2023-01-27T20:50:20.455Z,71.71
2023-01-27T20:52:49.257Z,71.32
2023-01-27T20:55:19.276Z,71.36
2023-01-27T20:57:47.252Z,71.57
2023-01-27T21:00:18.519Z,71.56
2023-01-27T21:02:47.484Z,71.16
2023-01-27T21:05:16.285Z,71.49
2023-01-27T21:07:45.778Z,71.38
2023-01-27T21:10:13.767Z,71.53
2023-01-27T21:12:41.633Z,71.32
2023-01-27T21:15:11.083Z,71.19
2023-01-27T21:17:39.035Z,71.22
2023-01-27T21:20:08.903Z,71.24
2023-01-27T21:22:36.799Z,70.95
2023-01-27T21:25:06.742Z,71.00
2023-01-27T21:27:34.679Z,71.25
2023-01-27T21:30:02.574Z,70.71
2023-01-27T21:32:30.456Z,70.77
2023-01-27T21:34:59.825Z,70.86
2023-01-27T21:37:27.748Z,70.54
2023-01-27T21:39:56.638Z,70.30
2023-01-27T21:42:51.772Z,70.80
2023-01-27T21:45:20.706Z,70.59
2023-01-27T21:47:48.633Z,70.31
2023-01-27T21:50:17.427Z,70.23
2023-01-27T21:52:47.231Z,70.54
2023-01-27T21:55:17.639Z,70.58
2023-01-27T21:57:48.532Z,70.60
2023-01-27T22:00:18.561Z,70.00
2023-01-27T22:02:46.596Z,70.04
2023-01-27T22:05:14.788Z,70.25
2023-01-27T22:07:48.369Z,70.37
2023-01-27T22:10:18.342Z,70.25
2023-01-27T22:12:49.815Z,70.29
2023-01-27T22:15:19.624Z,70.11
2023-01-27T22:17:47.807Z,70.59
2023-01-27T22:20:16.454Z,70.55
2023-01-27T22:22:44.758Z,70.31
2023-01-27T22:25:15.171Z,70.08
2023-01-27T22:27:43.452Z,70.67
2023-01-27T22:30:15.237Z,70.55
2023-01-27T22:32:43.822Z,70.15
2023-01-27T22:35:14.748Z,70.10
2023-01-27T22:37:43.186Z,70.61
2023-01-27T22:40:13.021Z,70.55
2023-01-27T22:42:40.907Z,70.58
2023-01-27T22:45:10.505Z,70.61
2023-01-27T22:47:39.848Z,70.58
2023-01-27T22:50:08.716Z,70.39
2023-01-27T22:52:37.584Z,70.11
2023-01-27T22:55:06.409Z,69.38
2023-01-27T22:57:34.433Z,69.72
2023-01-27T23:00:02.846Z,70.06
2023-01-27T23:02:31.254Z,69.70
2023-01-27T23:05:00.508Z,70.14
2023-01-27T23:07:28.353Z,69.64
2023-01-27T23:09:56.289Z,69.72
2023-01-27T23:12:24.115Z,69.77
2023-01-27T23:14:51.949Z,70.33
2023-01-27T23:17:19.836Z,70.20
2023-01-27T23:19:47.680Z,70.47
2023-01-27T23:22:16.896Z,70.58
2023-01-27T23:24:44.805Z,70.06
2023-01-27T23:27:12.645Z,70.50
2023-01-27T23:29:40.480Z,70.74
2023-01-27T23:32:08.424Z,70.58
2023-01-27T23:34:36.250Z,70.49
2023-01-27T23:37:04.109Z,70.65
2023-01-27T23:39:33.317Z,70.98
2023-01-27T23:42:01.165Z,71.21
2023-01-27T23:44:29.169Z,71.16
2023-01-27T23:46:57.059Z,71.93
2023-01-27T23:49:24.857Z,71.85
2023-01-27T23:51:52.692Z,71.92
2023-01-27T23:54:20.570Z,72.24
2023-01-27T23:56:49.841Z,72.52
2023-01-27T23:59:17.667Z,72.80
